Other Surface Observations
Issued by NWS Great Falls, MT

Home | Current Version | Previous Version | Text Only | Print | Product List | Glossary On
Versions: 1 2 3 4 5 6 7 8 9 10 11 12 13 14 15 16 17 18 19 20 21 22 23 24 25 26 27 28 29 30 31 32 33 34 35 36 37 38 39 40 41 42 43 44 45 46 47 48 49 50
000
SXUS55 KTFX 250441
OSOTFX

AREA AWOS OBSERVATIONS
NATIONAL WEATHER SERVICE GREAT FALLS MT
0941 PM MST Sat Feb 24 2018

METAR K6S0 250440Z AUTO 27018KT 10SM SCT024 SCT029 BKN040 M05/M08 A2975 RMK A01
METAR K6S8 250435Z AUTO 21008KT 10SM M07/M12 A2974 RMK A01
METAR K7S6 250440Z AUTO 29018G25KT 10SM M06/M13 A2970 RMK A01
METAR K7S0 250435Z AUTO 13003KT 10SM M06/M07 A2988 RMK A01



USA.gov is the U.S. government's official web portal to all federal, state and local government web resources and services.